CheckWX is a tool to help pilots better visualize weather data.  It is not intended as a substitute for an official pre-flight weather briefing.

23:18:00 UTC

KRDG METAR
Reading Regional / Carl A Spaatz Field Airport
Reading, Pennsylvania, USA
Current

24 mins ago

KRDG 202254Z 34005KT 10SM FEW060 M01/M11 A3040 RMK AO2 SLP304 T10061106
Observed
Feb-20 @ 22:54 UTC
Wind
  • 340° at 5 KTS
Visibility
10 SM
Flight Rules
VFR
Cloud Levels
  • Few at 6,000' AGL
Temperature
-1°C / 30°F
Dewpoint
-11°C / 12°F
Humidity
47%
Altimeter
30.4" Hg
Pressure
1029.42 hPa
Previous

1 hour ago

KRDG 202154Z 36007KT 10SM SCT050 01/M11 A3039 RMK AO2 SLP299 T00061111
Observed
Feb-20 @ 21:54 UTC
Wind
  • 360° at 7 KTS
Visibility
10 SM
Flight Rules
VFR
Cloud Levels
  • Scattered at 5,000' AGL
Temperature
C / 34°F
Dewpoint
-11°C / 12°F
Humidity
41%
Altimeter
30.39" Hg
Pressure
1029.12 hPa
Previous

2 hours ago

KRDG 202054Z 33009KT 10SM SCT050 01/M11 A3039 RMK AO2 SLP299 T00111106 56011
Observed
Feb-20 @ 20:54 UTC
Wind
  • 330° at 9 KTS
Visibility
10 SM
Flight Rules
VFR
Cloud Levels
  • Scattered at 5,000' AGL
Temperature
C / 34°F
Dewpoint
-11°C / 12°F
Humidity
41%
Altimeter
30.39" Hg
Pressure
1029.12 hPa